sensor_id;sensor_type;location;lat;lon;timestamp;temperature;humidity
4813;DHT22;2420;51.202;8.698;2022-11-06T00:01:14;6.10;1.00
4813;DHT22;2420;51.202;8.698;2022-11-06T00:03:41;6.10;1.00
4813;DHT22;2420;51.202;8.698;2022-11-06T00:06:11;6.20;1.00
4813;DHT22;2420;51.202;8.698;2022-11-06T00:08:58;6.20;1.00
4813;DHT22;2420;51.202;8.698;2022-11-06T00:11:24;6.30;1.00
4813;DHT22;2420;51.202;8.698;2022-11-06T00:13:49;6.30;1.00
4813;DHT22;2420;51.202;8.698;2022-11-06T00:16:17;6.30;1.00
4813;DHT22;2420;51.202;8.698;2022-11-06T00:18:43;6.30;1.00
4813;DHT22;2420;51.202;8.698;2022-11-06T00:21:13;6.40;1.00
4813;DHT22;2420;51.202;8.698;2022-11-06T00:23:42;6.40;1.00
4813;DHT22;2420;51.202;8.698;2022-11-06T00:26:12;6.40;1.00
4813;DHT22;2420;51.202;8.698;2022-11-06T00:28:38;6.40;1.00
4813;DHT22;2420;51.202;8.698;2022-11-06T00:31:09;6.40;1.00
4813;DHT22;2420;51.202;8.698;2022-11-06T00:33:35;6.40;1.00
4813;DHT22;2420;51.202;8.698;2022-11-06T00:36:05;6.40;1.00
4813;DHT22;2420;51.202;8.698;2022-11-06T00:38:31;6.40;1.00
4813;DHT22;2420;51.202;8.698;2022-11-06T00:41:01;6.50;1.00
4813;DHT22;2420;51.202;8.698;2022-11-06T00:43:27;6.60;1.00
4813;DHT22;2420;51.202;8.698;2022-11-06T00:45:53;6.50;1.00
4813;DHT22;2420;51.202;8.698;2022-11-06T00:48:18;6.50;1.00
4813;DHT22;2420;51.202;8.698;2022-11-06T00:50:44;6.50;1.00
4813;DHT22;2420;51.202;8.698;2022-11-06T00:53:09;6.50;1.00
4813;DHT22;2420;51.202;8.698;2022-11-06T00:55:35;6.50;1.00
4813;DHT22;2420;51.202;8.698;2022-11-06T00:58:00;6.60;1.00
4813;DHT22;2420;51.202;8.698;2022-11-06T01:00:26;6.60;1.00
4813;DHT22;2420;51.202;8.698;2022-11-06T01:02:51;6.60;1.00
4813;DHT22;2420;51.202;8.698;2022-11-06T01:05:17;6.60;1.00
4813;DHT22;2420;51.202;8.698;2022-11-06T01:07:42;6.60;1.00
4813;DHT22;2420;51.202;8.698;2022-11-06T01:10:08;6.60;1.00
4813;DHT22;2420;51.202;8.698;2022-11-06T01:12:37;6.50;1.00
4813;DHT22;2420;51.202;8.698;2022-11-06T01:15:03;6.60;1.00
4813;DHT22;2420;51.202;8.698;2022-11-06T01:17:28;6.60;1.00
4813;DHT22;2420;51.202;8.698;2022-11-06T01:19:54;6.60;1.00
4813;DHT22;2420;51.202;8.698;2022-11-06T01:22:19;6.60;1.00
4813;DHT22;2420;51.202;8.698;2022-11-06T01:24:45;6.60;1.00
4813;DHT22;2420;51.202;8.698;2022-11-06T01:27:10;6.50;1.00
4813;DHT22;2420;51.202;8.698;2022-11-06T01:29:36;6.50;1.00
4813;DHT22;2420;51.202;8.698;2022-11-06T01:32:02;6.50;1.00
4813;DHT22;2420;51.202;8.698;2022-11-06T01:34:27;6.50;1.00
4813;DHT22;2420;51.202;8.698;2022-11-06T01:36:53;6.60;1.00
4813;DHT22;2420;51.202;8.698;2022-11-06T01:39:19;6.60;1.00
4813;DHT22;2420;51.202;8.698;2022-11-06T01:41:47;6.60;1.00
4813;DHT22;2420;51.202;8.698;2022-11-06T01:46:58;6.60;1.00
4813;DHT22;2420;51.202;8.698;2022-11-06T01:49:24;6.50;1.00
4813;DHT22;2420;51.202;8.698;2022-11-06T01:51:58;6.60;1.00
4813;DHT22;2420;51.202;8.698;2022-11-06T01:54:26;6.60;1.00
4813;DHT22;2420;51.202;8.698;2022-11-06T01:56:57;6.60;1.00
4813;DHT22;2420;51.202;8.698;2022-11-06T01:59:25;6.60;1.00
4813;DHT22;2420;51.202;8.698;2022-11-06T02:01:52;6.70;1.00
4813;DHT22;2420;51.202;8.698;2022-11-06T02:04:33;6.70;1.00
4813;DHT22;2420;51.202;8.698;2022-11-06T02:07:00;6.70;1.00
4813;DHT22;2420;51.202;8.698;2022-11-06T02:09:26;6.70;1.00
4813;DHT22;2420;51.202;8.698;2022-11-06T02:15:01;6.70;1.00
4813;DHT22;2420;51.202;8.698;2022-11-06T02:17:35;6.70;1.00
4813;DHT22;2420;51.202;8.698;2022-11-06T02:20:27;6.80;1.00
4813;DHT22;2420;51.202;8.698;2022-11-06T02:26:12;6.70;1.00
4813;DHT22;2420;51.202;8.698;2022-11-06T02:28:44;6.60;1.00
4813;DHT22;2420;51.202;8.698;2022-11-06T02:31:16;6.60;1.00
4813;DHT22;2420;51.202;8.698;2022-11-06T02:33:48;6.60;1.00
4813;DHT22;2420;51.202;8.698;2022-11-06T02:36:18;6.60;1.00
4813;DHT22;2420;51.202;8.698;2022-11-06T02:38:56;6.70;1.00
4813;DHT22;2420;51.202;8.698;2022-11-06T02:41:28;6.70;1.00
4813;DHT22;2420;51.202;8.698;2022-11-06T02:43:55;6.60;1.00
4813;DHT22;2420;51.202;8.698;2022-11-06T02:46:30;6.70;1.00
4813;DHT22;2420;51.202;8.698;2022-11-06T02:49:13;6.50;1.00
4813;DHT22;2420;51.202;8.698;2022-11-06T02:51:47;6.70;1.00
4813;DHT22;2420;51.202;8.698;2022-11-06T02:54:18;6.70;1.00
4813;DHT22;2420;51.202;8.698;2022-11-06T02:56:45;6.60;1.00
4813;DHT22;2420;51.202;8.698;2022-11-06T02:59:38;6.60;1.00
4813;DHT22;2420;51.202;8.698;2022-11-06T03:02:08;6.60;1.00
4813;DHT22;2420;51.202;8.698;2022-11-06T03:04:44;6.60;1.00
4813;DHT22;2420;51.202;8.698;2022-11-06T03:09:40;6.60;1.00
4813;DHT22;2420;51.202;8.698;2022-11-06T03:12:29;6.60;1.00
4813;DHT22;2420;51.202;8.698;2022-11-06T03:14:59;6.60;1.00
4813;DHT22;2420;51.202;8.698;2022-11-06T03:20:19;6.40;1.00
4813;DHT22;2420;51.202;8.698;2022-11-06T03:25:50;6.40;1.00
4813;DHT22;2420;51.202;8.698;2022-11-06T03:28:33;6.40;1.00
4813;DHT22;2420;51.202;8.698;2022-11-06T03:31:08;6.40;1.00
4813;DHT22;2420;51.202;8.698;2022-11-06T03:33:51;6.40;1.00
4813;DHT22;2420;51.202;8.698;2022-11-06T03:36:33;6.40;1.00
4813;DHT22;2420;51.202;8.698;2022-11-06T03:39:05;6.40;1.00
4813;DHT22;2420;51.202;8.698;2022-11-06T03:41:39;6.20;1.00
4813;DHT22;2420;51.202;8.698;2022-11-06T03:44:09;6.30;1.00
4813;DHT22;2420;51.202;8.698;2022-11-06T03:46:38;6.30;1.00
4813;DHT22;2420;51.202;8.698;2022-11-06T03:49:10;6.40;1.00
4813;DHT22;2420;51.202;8.698;2022-11-06T03:51:48;6.40;1.00
4813;DHT22;2420;51.202;8.698;2022-11-06T03:54:38;6.30;1.00
4813;DHT22;2420;51.202;8.698;2022-11-06T03:57:14;6.30;1.00
4813;DHT22;2420;51.202;8.698;2022-11-06T03:59:46;6.20;1.00
4813;DHT22;2420;51.202;8.698;2022-11-06T04:02:14;6.20;1.00
4813;DHT22;2420;51.202;8.698;2022-11-06T04:04:51;6.20;1.00
4813;DHT22;2420;51.202;8.698;2022-11-06T04:07:23;6.20;1.00
4813;DHT22;2420;51.202;8.698;2022-11-06T04:09:59;6.10;1.00
4813;DHT22;2420;51.202;8.698;2022-11-06T04:12:45;6.10;1.00
4813;DHT22;2420;51.202;8.698;2022-11-06T04:15:35;6.00;1.00
4813;DHT22;2420;51.202;8.698;2022-11-06T04:18:02;5.60;1.00
4813;DHT22;2420;51.202;8.698;2022-11-06T04:20:34;6.00;1.00
4813;DHT22;2420;51.202;8.698;2022-11-06T04:23:50;6.00;1.00
4813;DHT22;2420;51.202;8.698;2022-11-06T04:26:56;6.00;1.00
4813;DHT22;2420;51.202;8.698;2022-11-06T04:35:53;6.00;1.00
4813;DHT22;2420;51.202;8.698;2022-11-06T04:41:19;6.00;1.00
4813;DHT22;2420;51.202;8.698;2022-11-06T04:43:53;6.00;1.00
4813;DHT22;2420;51.202;8.698;2022-11-06T04:46:28;5.60;1.00
4813;DHT22;2420;51.202;8.698;2022-11-06T04:48:55;6.00;1.00
4813;DHT22;2420;51.202;8.698;2022-11-06T04:51:24;6.00;1.00
4813;DHT22;2420;51.202;8.698;2022-11-06T04:53:51;6.00;1.00
4813;DHT22;2420;51.202;8.698;2022-11-06T04:56:30;6.00;1.00
4813;DHT22;2420;51.202;8.698;2022-11-06T04:58:56;6.00;1.00
4813;DHT22;2420;51.202;8.698;2022-11-06T05:01:22;6.20;1.00
4813;DHT22;2420;51.202;8.698;2022-11-06T05:03:47;6.10;1.00
4813;DHT22;2420;51.202;8.698;2022-11-06T05:06:13;6.20;1.00
4813;DHT22;2420;51.202;8.698;2022-11-06T05:08:38;6.30;1.00
4813;DHT22;2420;51.202;8.698;2022-11-06T05:11:04;6.10;1.00
4813;DHT22;2420;51.202;8.698;2022-11-06T05:13:30;6.10;1.00
4813;DHT22;2420;51.202;8.698;2022-11-06T05:15:56;6.10;1.00
4813;DHT22;2420;51.202;8.698;2022-11-06T05:18:23;6.10;1.00
4813;DHT22;2420;51.202;8.698;2022-11-06T05:20:49;6.10;1.00
4813;DHT22;2420;51.202;8.698;2022-11-06T05:23:34;6.20;1.00
4813;DHT22;2420;51.202;8.698;2022-11-06T05:26:00;5.90;1.00
4813;DHT22;2420;51.202;8.698;2022-11-06T05:28:25;6.20;1.00
4813;DHT22;2420;51.202;8.698;2022-11-06T05:30:51;6.20;1.00
4813;DHT22;2420;51.202;8.698;2022-11-06T05:33:16;6.20;1.00
4813;DHT22;2420;51.202;8.698;2022-11-06T05:35:42;6.20;1.00
4813;DHT22;2420;51.202;8.698;2022-11-06T05:38:07;6.20;1.00
4813;DHT22;2420;51.202;8.698;2022-11-06T05:40:33;6.20;1.00
4813;DHT22;2420;51.202;8.698;2022-11-06T05:42:58;6.20;1.00
4813;DHT22;2420;51.202;8.698;2022-11-06T05:45:24;6.20;1.00
4813;DHT22;2420;51.202;8.698;2022-11-06T05:47:49;5.80;1.00
4813;DHT22;2420;51.202;8.698;2022-11-06T05:50:15;6.20;1.00
4813;DHT22;2420;51.202;8.698;2022-11-06T05:52:40;6.10;1.00
4813;DHT22;2420;51.202;8.698;2022-11-06T05:55:06;6.10;1.00
4813;DHT22;2420;51.202;8.698;2022-11-06T05:57:32;5.70;1.00
4813;DHT22;2420;51.202;8.698;2022-11-06T05:59:58;6.20;1.00
4813;DHT22;2420;51.202;8.698;2022-11-06T06:02:23;6.20;1.00
4813;DHT22;2420;51.202;8.698;2022-11-06T06:04:49;6.20;1.00
4813;DHT22;2420;51.202;8.698;2022-11-06T06:07:14;6.20;1.00
4813;DHT22;2420;51.202;8.698;2022-11-06T06:09:40;6.20;1.00
4813;DHT22;2420;51.202;8.698;2022-11-06T06:12:05;6.10;1.00
4813;DHT22;2420;51.202;8.698;2022-11-06T06:14:33;6.00;1.00
4813;DHT22;2420;51.202;8.698;2022-11-06T06:16:58;6.00;1.00
4813;DHT22;2420;51.202;8.698;2022-11-06T06:19:24;6.00;1.00
4813;DHT22;2420;51.202;8.698;2022-11-06T06:21:49;6.00;1.00
4813;DHT22;2420;51.202;8.698;2022-11-06T06:24:15;6.00;1.00
4813;DHT22;2420;51.202;8.698;2022-11-06T06:26:40;6.00;1.00
4813;DHT22;2420;51.202;8.698;2022-11-06T06:29:06;6.00;1.00
4813;DHT22;2420;51.202;8.698;2022-11-06T06:31:31;6.00;1.00
4813;DHT22;2420;51.202;8.698;2022-11-06T06:33:57;6.00;1.00
4813;DHT22;2420;51.202;8.698;2022-11-06T06:36:22;6.20;1.00
4813;DHT22;2420;51.202;8.698;2022-11-06T06:38:48;6.00;1.00
4813;DHT22;2420;51.202;8.698;2022-11-06T06:41:13;6.00;1.00
4813;DHT22;2420;51.202;8.698;2022-11-06T06:43:39;6.00;1.00
4813;DHT22;2420;51.202;8.698;2022-11-06T06:46:05;6.00;1.00
4813;DHT22;2420;51.202;8.698;2022-11-06T06:48:32;6.00;1.00
4813;DHT22;2420;51.202;8.698;2022-11-06T06:50:59;6.00;1.00
4813;DHT22;2420;51.202;8.698;2022-11-06T06:53:25;6.00;1.00
4813;DHT22;2420;51.202;8.698;2022-11-06T06:55:51;6.00;1.00
4813;DHT22;2420;51.202;8.698;2022-11-06T06:58:17;6.00;1.00
4813;DHT22;2420;51.202;8.698;2022-11-06T07:00:43;6.10;1.00
4813;DHT22;2420;51.202;8.698;2022-11-06T07:03:08;6.20;1.00
4813;DHT22;2420;51.202;8.698;2022-11-06T07:05:35;5.80;1.00
4813;DHT22;2420;51.202;8.698;2022-11-06T07:08:00;6.20;1.00
4813;DHT22;2420;51.202;8.698;2022-11-06T07:10:26;6.00;1.00
4813;DHT22;2420;51.202;8.698;2022-11-06T07:12:52;6.00;1.00
4813;DHT22;2420;51.202;8.698;2022-11-06T07:15:17;6.10;1.00
4813;DHT22;2420;51.202;8.698;2022-11-06T07:17:43;6.10;1.00
4813;DHT22;2420;51.202;8.698;2022-11-06T07:20:09;6.10;1.00
4813;DHT22;2420;51.202;8.698;2022-11-06T07:22:34;6.20;1.00
4813;DHT22;2420;51.202;8.698;2022-11-06T07:25:00;6.20;1.00
4813;DHT22;2420;51.202;8.698;2022-11-06T07:27:26;5.90;1.00
4813;DHT22;2420;51.202;8.698;2022-11-06T07:29:53;6.50;1.00
4813;DHT22;2420;51.202;8.698;2022-11-06T07:32:19;6.30;1.00
4813;DHT22;2420;51.202;8.698;2022-11-06T07:34:45;6.30;1.00
4813;DHT22;2420;51.202;8.698;2022-11-06T07:37:10;6.30;1.00
4813;DHT22;2420;51.202;8.698;2022-11-06T07:39:36;6.30;1.00
4813;DHT22;2420;51.202;8.698;2022-11-06T07:42:01;6.40;1.00
4813;DHT22;2420;51.202;8.698;2022-11-06T07:44:27;6.40;1.00
4813;DHT22;2420;51.202;8.698;2022-11-06T07:46:52;6.40;1.00
4813;DHT22;2420;51.202;8.698;2022-11-06T07:49:18;6.40;1.00
4813;DHT22;2420;51.202;8.698;2022-11-06T07:51:43;6.50;1.00
4813;DHT22;2420;51.202;8.698;2022-11-06T07:54:12;6.50;1.00
4813;DHT22;2420;51.202;8.698;2022-11-06T07:56:37;6.50;1.00
4813;DHT22;2420;51.202;8.698;2022-11-06T07:59:03;6.50;1.00
4813;DHT22;2420;51.202;8.698;2022-11-06T08:01:30;6.60;1.00
4813;DHT22;2420;51.202;8.698;2022-11-06T08:03:55;6.60;1.00
4813;DHT22;2420;51.202;8.698;2022-11-06T08:06:21;6.60;1.00
4813;DHT22;2420;51.202;8.698;2022-11-06T08:08:47;6.60;1.00
4813;DHT22;2420;51.202;8.698;2022-11-06T08:11:13;6.60;1.00
4813;DHT22;2420;51.202;8.698;2022-11-06T08:13:38;6.60;1.00
4813;DHT22;2420;51.202;8.698;2022-11-06T08:16:06;6.60;1.00
4813;DHT22;2420;51.202;8.698;2022-11-06T08:18:32;6.60;1.00
4813;DHT22;2420;51.202;8.698;2022-11-06T08:20:58;6.60;1.00
4813;DHT22;2420;51.202;8.698;2022-11-06T08:23:24;6.60;1.00
4813;DHT22;2420;51.202;8.698;2022-11-06T08:25:53;6.60;1.00
4813;DHT22;2420;51.202;8.698;2022-11-06T08:28:19;6.60;1.00
4813;DHT22;2420;51.202;8.698;2022-11-06T08:30:45;6.60;1.00
4813;DHT22;2420;51.202;8.698;2022-11-06T08:33:11;6.60;1.00
4813;DHT22;2420;51.202;8.698;2022-11-06T08:35:37;6.60;1.00
4813;DHT22;2420;51.202;8.698;2022-11-06T08:38:03;6.60;1.00
4813;DHT22;2420;51.202;8.698;2022-11-06T08:40:29;6.60;1.00
4813;DHT22;2420;51.202;8.698;2022-11-06T08:42:59;6.60;1.00
4813;DHT22;2420;51.202;8.698;2022-11-06T08:45:24;6.60;1.00
4813;DHT22;2420;51.202;8.698;2022-11-06T08:47:50;6.70;1.00
4813;DHT22;2420;51.202;8.698;2022-11-06T08:50:15;6.70;1.00
4813;DHT22;2420;51.202;8.698;2022-11-06T08:52:41;6.70;1.00
4813;DHT22;2420;51.202;8.698;2022-11-06T08:55:07;6.70;1.00
4813;DHT22;2420;51.202;8.698;2022-11-06T08:57:32;6.70;1.00
4813;DHT22;2420;51.202;8.698;2022-11-06T08:59:58;6.70;1.00
4813;DHT22;2420;51.202;8.698;2022-11-06T09:02:23;6.70;1.00
4813;DHT22;2420;51.202;8.698;2022-11-06T09:04:49;6.70;1.00
4813;DHT22;2420;51.202;8.698;2022-11-06T09:07:15;6.70;1.00
4813;DHT22;2420;51.202;8.698;2022-11-06T09:09:40;6.80;1.00
4813;DHT22;2420;51.202;8.698;2022-11-06T09:12:06;6.80;1.00
4813;DHT22;2420;51.202;8.698;2022-11-06T09:14:33;6.80;1.00
4813;DHT22;2420;51.202;8.698;2022-11-06T09:16:58;6.80;1.00
4813;DHT22;2420;51.202;8.698;2022-11-06T09:19:24;6.80;1.00
4813;DHT22;2420;51.202;8.698;2022-11-06T09:21:49;6.90;1.00
4813;DHT22;2420;51.202;8.698;2022-11-06T09:24:15;6.90;1.00
4813;DHT22;2420;51.202;8.698;2022-11-06T09:26:40;7.00;1.00
4813;DHT22;2420;51.202;8.698;2022-11-06T09:29:06;7.00;1.00
4813;DHT22;2420;51.202;8.698;2022-11-06T09:31:32;7.10;1.00
4813;DHT22;2420;51.202;8.698;2022-11-06T09:33:57;7.10;1.00
4813;DHT22;2420;51.202;8.698;2022-11-06T09:36:23;7.00;1.00
4813;DHT22;2420;51.202;8.698;2022-11-06T09:38:48;7.00;1.00
4813;DHT22;2420;51.202;8.698;2022-11-06T09:41:23;6.90;1.00
4813;DHT22;2420;51.202;8.698;2022-11-06T09:46:44;7.00;1.00
4813;DHT22;2420;51.202;8.698;2022-11-06T09:51:58;6.90;1.00
4813;DHT22;2420;51.202;8.698;2022-11-06T09:54:41;7.00;1.00
4813;DHT22;2420;51.202;8.698;2022-11-06T09:57:20;7.00;1.00
4813;DHT22;2420;51.202;8.698;2022-11-06T09:59:46;7.00;1.00
4813;DHT22;2420;51.202;8.698;2022-11-06T10:02:27;7.00;1.00
4813;DHT22;2420;51.202;8.698;2022-11-06T10:05:04;6.90;1.00
4813;DHT22;2420;51.202;8.698;2022-11-06T10:07:35;6.80;1.00
4813;DHT22;2420;51.202;8.698;2022-11-06T10:10:02;6.80;1.00
4813;DHT22;2420;51.202;8.698;2022-11-06T10:15:26;6.80;1.00
4813;DHT22;2420;51.202;8.698;2022-11-06T10:26:36;6.80;1.00
4813;DHT22;2420;51.202;8.698;2022-11-06T10:32:23;7.10;1.00
4813;DHT22;2420;51.202;8.698;2022-11-06T10:35:08;7.10;1.00
4813;DHT22;2420;51.202;8.698;2022-11-06T10:37:48;7.20;1.00
4813;DHT22;2420;51.202;8.698;2022-11-06T10:40:21;7.30;1.00
4813;DHT22;2420;51.202;8.698;2022-11-06T10:43:02;7.20;1.00
4813;DHT22;2420;51.202;8.698;2022-11-06T10:45:33;7.30;1.00
4813;DHT22;2420;51.202;8.698;2022-11-06T10:48:05;7.40;1.00
4813;DHT22;2420;51.202;8.698;2022-11-06T10:56:56;7.40;1.00
4813;DHT22;2420;51.202;8.698;2022-11-06T10:59:26;7.50;1.00
4813;DHT22;2420;51.202;8.698;2022-11-06T11:01:52;7.50;1.00
4813;DHT22;2420;51.202;8.698;2022-11-06T11:04:18;7.50;1.00
4813;DHT22;2420;51.202;8.698;2022-11-06T11:06:43;7.60;1.00
4813;DHT22;2420;51.202;8.698;2022-11-06T11:09:29;7.60;1.00
4813;DHT22;2420;51.202;8.698;2022-11-06T11:11:55;7.60;1.00
4813;DHT22;2420;51.202;8.698;2022-11-06T11:14:23;7.80;1.00
4813;DHT22;2420;51.202;8.698;2022-11-06T11:16:49;7.80;1.00
4813;DHT22;2420;51.202;8.698;2022-11-06T11:21:57;7.80;1.00
4813;DHT22;2420;51.202;8.698;2022-11-06T11:24:23;7.80;1.00
4813;DHT22;2420;51.202;8.698;2022-11-06T11:26:53;7.80;1.00
4813;DHT22;2420;51.202;8.698;2022-11-06T11:31:59;7.90;1.00
4813;DHT22;2420;51.202;8.698;2022-11-06T11:34:28;8.10;1.00
4813;DHT22;2420;51.202;8.698;2022-11-06T11:37:04;8.20;1.00
4813;DHT22;2420;51.202;8.698;2022-11-06T11:39:39;8.30;1.00
4813;DHT22;2420;51.202;8.698;2022-11-06T11:42:41;8.30;1.00
4813;DHT22;2420;51.202;8.698;2022-11-06T11:47:33;8.20;1.00
4813;DHT22;2420;51.202;8.698;2022-11-06T11:50:17;8.10;1.00
4813;DHT22;2420;51.202;8.698;2022-11-06T11:52:45;8.00;1.00
4813;DHT22;2420;51.202;8.698;2022-11-06T11:55:16;7.90;1.00
4813;DHT22;2420;51.202;8.698;2022-11-06T11:57:47;7.90;1.00
4813;DHT22;2420;51.202;8.698;2022-11-06T12:00:18;8.00;1.00
4813;DHT22;2420;51.202;8.698;2022-11-06T12:02:53;8.10;1.00
4813;DHT22;2420;51.202;8.698;2022-11-06T12:05:32;8.30;1.00
4813;DHT22;2420;51.202;8.698;2022-11-06T12:07:59;8.40;1.00
4813;DHT22;2420;51.202;8.698;2022-11-06T12:10:32;8.40;1.00
4813;DHT22;2420;51.202;8.698;2022-11-06T12:13:01;8.40;1.00
4813;DHT22;2420;51.202;8.698;2022-11-06T12:18:26;8.30;1.00
4813;DHT22;2420;51.202;8.698;2022-11-06T12:21:19;8.40;1.00
4813;DHT22;2420;51.202;8.698;2022-11-06T12:26:32;8.40;1.00
4813;DHT22;2420;51.202;8.698;2022-11-06T12:29:24;8.50;1.00
4813;DHT22;2420;51.202;8.698;2022-11-06T12:31:56;8.50;1.00
4813;DHT22;2420;51.202;8.698;2022-11-06T12:34:35;8.50;1.00
4813;DHT22;2420;51.202;8.698;2022-11-06T12:39:42;8.50;1.00
4813;DHT22;2420;51.202;8.698;2022-11-06T12:42:11;8.50;1.00
4813;DHT22;2420;51.202;8.698;2022-11-06T12:44:38;8.50;1.00
4813;DHT22;2420;51.202;8.698;2022-11-06T12:52:42;8.60;1.00
4813;DHT22;2420;51.202;8.698;2022-11-06T12:55:14;8.60;1.00
4813;DHT22;2420;51.202;8.698;2022-11-06T12:58:01;8.50;1.00
4813;DHT22;2420;51.202;8.698;2022-11-06T13:01:21;8.50;1.00
4813;DHT22;2420;51.202;8.698;2022-11-06T13:09:12;8.60;1.00
4813;DHT22;2420;51.202;8.698;2022-11-06T13:12:05;8.70;1.00
4813;DHT22;2420;51.202;8.698;2022-11-06T13:14:58;8.60;1.00
4813;DHT22;2420;51.202;8.698;2022-11-06T13:17:30;8.80;1.00
4813;DHT22;2420;51.202;8.698;2022-11-06T13:20:00;8.80;1.00
4813;DHT22;2420;51.202;8.698;2022-11-06T13:22:41;8.80;1.00
4813;DHT22;2420;51.202;8.698;2022-11-06T13:25:12;8.90;1.00
4813;DHT22;2420;51.202;8.698;2022-11-06T13:28:18;8.90;1.00
4813;DHT22;2420;51.202;8.698;2022-11-06T13:30:46;8.80;1.00
4813;DHT22;2420;51.202;8.698;2022-11-06T13:33:23;8.90;1.00
4813;DHT22;2420;51.202;8.698;2022-11-06T13:35:49;8.90;1.00
4813;DHT22;2420;51.202;8.698;2022-11-06T13:38:22;9.00;1.00
4813;DHT22;2420;51.202;8.698;2022-11-06T13:40:52;9.00;1.00
4813;DHT22;2420;51.202;8.698;2022-11-06T13:43:22;9.00;1.00
4813;DHT22;2420;51.202;8.698;2022-11-06T13:46:15;9.00;1.00
4813;DHT22;2420;51.202;8.698;2022-11-06T14:04:41;8.80;1.00
4813;DHT22;2420;51.202;8.698;2022-11-06T14:07:15;8.80;1.00
4813;DHT22;2420;51.202;8.698;2022-11-06T14:09:43;8.80;1.00
4813;DHT22;2420;51.202;8.698;2022-11-06T14:12:19;8.90;1.00
4813;DHT22;2420;51.202;8.698;2022-11-06T14:14:46;8.90;1.00
4813;DHT22;2420;51.202;8.698;2022-11-06T14:19:59;8.90;1.00
4813;DHT22;2420;51.202;8.698;2022-11-06T14:22:32;8.90;1.00
4813;DHT22;2420;51.202;8.698;2022-11-06T14:24:58;9.00;1.00
4813;DHT22;2420;51.202;8.698;2022-11-06T14:30:04;8.90;1.00
4813;DHT22;2420;51.202;8.698;2022-11-06T14:32:37;8.90;1.00
4813;DHT22;2420;51.202;8.698;2022-11-06T14:40:35;8.80;1.00
4813;DHT22;2420;51.202;8.698;2022-11-06T14:45:55;8.70;1.00
4813;DHT22;2420;51.202;8.698;2022-11-06T14:48:32;8.60;1.00
4813;DHT22;2420;51.202;8.698;2022-11-06T14:50:59;8.50;1.00
4813;DHT22;2420;51.202;8.698;2022-11-06T14:53:30;8.50;1.00
4813;DHT22;2420;51.202;8.698;2022-11-06T14:56:00;8.50;1.00
4813;DHT22;2420;51.202;8.698;2022-11-06T14:58:39;8.50;1.00
4813;DHT22;2420;51.202;8.698;2022-11-06T15:08:56;8.40;1.00
4813;DHT22;2420;51.202;8.698;2022-11-06T15:16:40;8.40;1.00
4813;DHT22;2420;51.202;8.698;2022-11-06T15:21:49;8.30;1.00
4813;DHT22;2420;51.202;8.698;2022-11-06T15:24:33;8.30;1.00
4813;DHT22;2420;51.202;8.698;2022-11-06T15:27:07;8.30;1.00
4813;DHT22;2420;51.202;8.698;2022-11-06T15:29:37;8.20;1.00
4813;DHT22;2420;51.202;8.698;2022-11-06T15:32:18;8.20;1.00
4813;DHT22;2420;51.202;8.698;2022-11-06T15:37:22;8.20;1.00
4813;DHT22;2420;51.202;8.698;2022-11-06T15:39:50;8.20;1.00
4813;DHT22;2420;51.202;8.698;2022-11-06T15:42:18;8.10;1.00
4813;DHT22;2420;51.202;8.698;2022-11-06T15:44:46;8.10;1.00
4813;DHT22;2420;51.202;8.698;2022-11-06T15:47:27;8.10;1.00
4813;DHT22;2420;51.202;8.698;2022-11-06T15:52:36;8.10;1.00
4813;DHT22;2420;51.202;8.698;2022-11-06T15:55:02;8.10;1.00
4813;DHT22;2420;51.202;8.698;2022-11-06T15:57:28;8.00;1.00
4813;DHT22;2420;51.202;8.698;2022-11-06T16:02:32;8.10;1.00
4813;DHT22;2420;51.202;8.698;2022-11-06T16:04:57;8.00;1.00
4813;DHT22;2420;51.202;8.698;2022-11-06T16:07:23;8.10;1.00
4813;DHT22;2420;51.202;8.698;2022-11-06T16:09:49;8.10;1.00
4813;DHT22;2420;51.202;8.698;2022-11-06T16:12:16;8.10;1.00
4813;DHT22;2420;51.202;8.698;2022-11-06T16:14:43;8.00;1.00
4813;DHT22;2420;51.202;8.698;2022-11-06T16:17:15;7.90;1.00
4813;DHT22;2420;51.202;8.698;2022-11-06T16:19:43;8.00;1.00
4813;DHT22;2420;51.202;8.698;2022-11-06T16:22:18;8.00;1.00
4813;DHT22;2420;51.202;8.698;2022-11-06T16:24:50;7.90;1.00
4813;DHT22;2420;51.202;8.698;2022-11-06T16:27:17;7.90;1.00
4813;DHT22;2420;51.202;8.698;2022-11-06T16:29:48;7.90;1.00
4813;DHT22;2420;51.202;8.698;2022-11-06T16:32:42;7.90;1.00
4813;DHT22;2420;51.202;8.698;2022-11-06T16:35:30;7.90;1.00
4813;DHT22;2420;51.202;8.698;2022-11-06T16:40:52;7.90;1.00
4813;DHT22;2420;51.202;8.698;2022-11-06T16:43:21;8.00;1.00
4813;DHT22;2420;51.202;8.698;2022-11-06T16:45:52;8.00;1.00
4813;DHT22;2420;51.202;8.698;2022-11-06T16:48:33;8.00;1.00
4813;DHT22;2420;51.202;8.698;2022-11-06T16:51:14;7.90;1.00
4813;DHT22;2420;51.202;8.698;2022-11-06T16:53:59;7.90;1.00
4813;DHT22;2420;51.202;8.698;2022-11-06T16:56:30;7.90;1.00
4813;DHT22;2420;51.202;8.698;2022-11-06T16:59:05;7.90;1.00
4813;DHT22;2420;51.202;8.698;2022-11-06T17:01:40;7.90;1.00
4813;DHT22;2420;51.202;8.698;2022-11-06T17:04:43;7.90;1.00
4813;DHT22;2420;51.202;8.698;2022-11-06T17:07:01;7.90;1.00
4813;DHT22;2420;51.202;8.698;2022-11-06T17:09:32;7.90;1.00
4813;DHT22;2420;51.202;8.698;2022-11-06T17:11:59;7.90;1.00
4813;DHT22;2420;51.202;8.698;2022-11-06T17:14:26;7.90;1.00
4813;DHT22;2420;51.202;8.698;2022-11-06T17:16:57;7.90;1.00
4813;DHT22;2420;51.202;8.698;2022-11-06T17:19:24;7.90;1.00
4813;DHT22;2420;51.202;8.698;2022-11-06T17:21:50;7.90;1.00
4813;DHT22;2420;51.202;8.698;2022-11-06T17:24:16;7.90;1.00
4813;DHT22;2420;51.202;8.698;2022-11-06T17:26:50;7.90;1.00
4813;DHT22;2420;51.202;8.698;2022-11-06T17:29:16;7.90;1.00
4813;DHT22;2420;51.202;8.698;2022-11-06T17:31:42;7.90;1.00
4813;DHT22;2420;51.202;8.698;2022-11-06T17:34:08;7.90;1.00
4813;DHT22;2420;51.202;8.698;2022-11-06T17:36:35;7.90;1.00
4813;DHT22;2420;51.202;8.698;2022-11-06T17:39:00;7.90;1.00
4813;DHT22;2420;51.202;8.698;2022-11-06T17:41:26;8.00;1.00
4813;DHT22;2420;51.202;8.698;2022-11-06T17:43:56;8.00;1.00
4813;DHT22;2420;51.202;8.698;2022-11-06T17:46:27;7.90;1.00
4813;DHT22;2420;51.202;8.698;2022-11-06T17:48:53;7.90;1.00
4813;DHT22;2420;51.202;8.698;2022-11-06T17:51:19;7.90;1.00
4813;DHT22;2420;51.202;8.698;2022-11-06T17:54:04;8.00;1.00
4813;DHT22;2420;51.202;8.698;2022-11-06T17:56:30;7.90;1.00
4813;DHT22;2420;51.202;8.698;2022-11-06T17:58:55;7.90;1.00
4813;DHT22;2420;51.202;8.698;2022-11-06T18:01:21;7.90;1.00
4813;DHT22;2420;51.202;8.698;2022-11-06T18:03:46;7.80;1.00
4813;DHT22;2420;51.202;8.698;2022-11-06T18:06:13;7.80;1.00
4813;DHT22;2420;51.202;8.698;2022-11-06T18:08:39;7.90;1.00
4813;DHT22;2420;51.202;8.698;2022-11-06T18:11:06;7.90;1.00
4813;DHT22;2420;51.202;8.698;2022-11-06T18:13:33;7.80;1.00
4813;DHT22;2420;51.202;8.698;2022-11-06T18:15:59;7.80;1.00
4813;DHT22;2420;51.202;8.698;2022-11-06T18:18:25;7.80;1.00
4813;DHT22;2420;51.202;8.698;2022-11-06T18:20:50;7.80;1.00
4813;DHT22;2420;51.202;8.698;2022-11-06T18:23:16;7.70;1.00
4813;DHT22;2420;51.202;8.698;2022-11-06T18:25:42;7.70;1.00
4813;DHT22;2420;51.202;8.698;2022-11-06T18:28:08;7.70;1.00
4813;DHT22;2420;51.202;8.698;2022-11-06T18:30:36;7.60;1.00
4813;DHT22;2420;51.202;8.698;2022-11-06T18:33:01;7.60;1.00
4813;DHT22;2420;51.202;8.698;2022-11-06T18:35:27;7.60;1.00
4813;DHT22;2420;51.202;8.698;2022-11-06T18:37:52;7.60;1.00
4813;DHT22;2420;51.202;8.698;2022-11-06T18:40:18;7.60;1.00
4813;DHT22;2420;51.202;8.698;2022-11-06T18:42:44;7.50;1.00
4813;DHT22;2420;51.202;8.698;2022-11-06T18:45:09;7.50;1.00
4813;DHT22;2420;51.202;8.698;2022-11-06T18:47:35;7.50;1.00
4813;DHT22;2420;51.202;8.698;2022-11-06T18:50:00;7.50;1.00
4813;DHT22;2420;51.202;8.698;2022-11-06T18:52:26;7.40;1.00
4813;DHT22;2420;51.202;8.698;2022-11-06T18:54:51;7.40;1.00
4813;DHT22;2420;51.202;8.698;2022-11-06T18:57:17;7.40;1.00
4813;DHT22;2420;51.202;8.698;2022-11-06T18:59:42;7.30;1.00
4813;DHT22;2420;51.202;8.698;2022-11-06T19:02:08;7.40;1.00
4813;DHT22;2420;51.202;8.698;2022-11-06T19:04:34;7.30;1.00
4813;DHT22;2420;51.202;8.698;2022-11-06T19:07:00;7.30;1.00
4813;DHT22;2420;51.202;8.698;2022-11-06T19:09:25;7.30;1.00